Terminal Aerodrome Forecast
Issued by NWS

Home | Current Version | Previous Version | Graphics & Text | Print | Product List | Glossary On
Versions: 1 2 3 4 5 6 7 8 9 10 11 12 13 14 15 16 17 18 19 20 21
000
FTUS43 KGRB 140520
TAFRHI
TAF
KRHI 140520Z 1406/1506 20003KT P6SM SCT250
     FM142000 18010G15KT 6SM -SN OVC090
     FM142200 18010G15KT 4SM -SN OVC035
     FM142300 17007KT 2SM -SN OVC023
     FM150400 17005KT 1 1/2SM -SN OVC017=

USA.gov is the U.S. government's official web portal to all federal, state and local government web resources and services.